createdAt,value
2018-08-28T00:00:19.267Z,101429.87
2018-08-28T00:02:47.604Z,101430.88
2018-08-28T00:05:15.818Z,101434.99
2018-08-28T00:07:44.102Z,101439.50
2018-08-28T00:10:12.388Z,101442.33
2018-08-28T00:12:40.811Z,101437.70
2018-08-28T00:15:09.112Z,101445.06
2018-08-28T00:17:37.368Z,101443.50
2018-08-28T00:20:05.764Z,101449.63
2018-08-28T00:22:34.021Z,101449.73
2018-08-28T00:25:02.594Z,101452.22
2018-08-28T00:27:30.918Z,101455.34
2018-08-28T00:29:59.139Z,101463.52
2018-08-28T00:32:27.456Z,101454.27
2018-08-28T00:34:55.731Z,101453.61
2018-08-28T00:37:24.101Z,101465.72
2018-08-28T00:39:52.638Z,101459.69
2018-08-28T00:42:20.801Z,101456.84
2018-08-28T00:44:49.015Z,101473.09
2018-08-28T00:47:17.301Z,101464.39
2018-08-28T00:49:45.580Z,101471.09
2018-08-28T00:52:13.819Z,101473.76
2018-08-28T00:54:42.128Z,101474.05
2018-08-28T00:57:10.409Z,101482.55
2018-08-28T00:59:38.635Z,101481.28
2018-08-28T01:02:06.895Z,101483.36
2018-08-28T01:04:35.154Z,101476.47
2018-08-28T01:07:03.543Z,101483.36
2018-08-28T01:09:31.708Z,101484.45
2018-08-28T01:11:59.982Z,101483.08
2018-08-28T01:14:28.190Z,101482.50
2018-08-28T01:16:56.554Z,101498.46
2018-08-28T01:19:24.828Z,101494.76
2018-08-28T01:21:53.189Z,101497.77
2018-08-28T01:24:21.398Z,101501.64
2018-08-28T01:26:49.662Z,101505.23
2018-08-28T01:29:17.932Z,101507.08
2018-08-28T01:31:46.211Z,101504.65
2018-08-28T01:34:14.488Z,101512.63
2018-08-28T01:36:42.734Z,101511.02
2018-08-28T01:39:10.956Z,101509.53
2018-08-28T01:41:39.171Z,101509.42
2018-08-28T01:44:07.418Z,101512.89
2018-08-28T01:46:35.677Z,101518.39
2018-08-28T01:49:04.043Z,101524.00
2018-08-28T01:51:32.274Z,101531.11
2018-08-28T01:54:00.517Z,101520.70
2018-08-28T01:56:28.789Z,101526.91
2018-08-28T01:58:56.995Z,101522.20
2018-08-28T02:01:25.364Z,101520.55
2018-08-28T02:03:53.610Z,101521.07
2018-08-28T02:06:21.851Z,101520.55
2018-08-28T02:08:50.118Z,101521.18
2018-08-28T02:11:18.356Z,101525.92
2018-08-28T02:13:46.653Z,101528.41
2018-08-28T02:16:15.024Z,101531.70
2018-08-28T02:18:43.160Z,101524.87
2018-08-28T02:21:11.379Z,101536.56
2018-08-28T02:23:39.600Z,101536.73
2018-08-28T02:26:07.881Z,101541.53
2018-08-28T02:28:36.096Z,101529.50
2018-08-28T02:31:04.345Z,101530.95
2018-08-28T02:33:32.504Z,101534.65
2018-08-28T02:36:01.327Z,101534.13
2018-08-28T02:38:29.498Z,101541.17
2018-08-28T02:40:57.745Z,101532.97
2018-08-28T02:43:26.097Z,101544.12
2018-08-28T02:45:54.329Z,101540.85
2018-08-28T02:48:22.528Z,101543.02
2018-08-28T02:50:50.766Z,101547.44
2018-08-28T02:53:19.046Z,101552.39
2018-08-28T02:55:47.202Z,101554.30
2018-08-28T02:58:15.477Z,101549.28
2018-08-28T03:00:43.745Z,101553.03
2018-08-28T03:03:12.021Z,101557.26
2018-08-28T03:05:40.328Z,101557.48
2018-08-28T03:08:08.569Z,101552.35
2018-08-28T03:10:36.850Z,101567.20
2018-08-28T03:13:05.119Z,101566.40
2018-08-28T03:15:33.463Z,101573.86
2018-08-28T03:18:01.696Z,101577.78
2018-08-28T03:20:29.881Z,101575.87
2018-08-28T03:22:58.153Z,101577.55
2018-08-28T03:25:26.388Z,101574.55
2018-08-28T03:27:54.678Z,101578.83
2018-08-28T03:30:22.994Z,101585.02
2018-08-28T03:32:51.273Z,101584.44
2018-08-28T03:35:19.477Z,101587.84
2018-08-28T03:37:47.694Z,101589.59
2018-08-28T03:40:16.046Z,101584.44
2018-08-28T03:42:44.408Z,101590.17
2018-08-28T03:45:12.634Z,101601.56
2018-08-28T03:47:40.879Z,101598.50
2018-08-28T03:50:09.092Z,101596.69
2018-08-28T03:52:37.371Z,101602.01
2018-08-28T03:55:05.564Z,101608.20
2018-08-28T03:57:33.778Z,101605.32
2018-08-28T04:00:02.297Z,101607.69
2018-08-28T04:02:30.586Z,101615.38
2018-08-28T04:04:58.904Z,101609.70
2018-08-28T04:07:27.124Z,101612.59
2018-08-28T04:09:55.346Z,101612.07
2018-08-28T04:12:23.553Z,101617.45
2018-08-28T04:14:51.766Z,101618.20
2018-08-28T04:17:20.135Z,101623.75
2018-08-28T04:19:48.302Z,101628.03
2018-08-28T04:22:16.572Z,101629.42
2018-08-28T04:24:44.762Z,101633.77
2018-08-28T04:27:13.076Z,101642.07
2018-08-28T04:29:41.223Z,101647.23
2018-08-28T04:32:09.461Z,101643.56
2018-08-28T04:34:37.698Z,101646.36
2018-08-28T04:37:06.275Z,101647.84
2018-08-28T04:39:34.432Z,101646.94
2018-08-28T04:42:02.694Z,101650.21
2018-08-28T04:44:30.937Z,101652.55
2018-08-28T04:46:59.192Z,101652.25
2018-08-28T04:49:27.407Z,101650.05
2018-08-28T04:51:55.687Z,101651.83
2018-08-28T04:54:24.045Z,101654.20
2018-08-28T04:56:52.171Z,101652.35
2018-08-28T04:59:20.385Z,101656.24
2018-08-28T05:01:48.713Z,101659.36
2018-08-28T05:04:16.983Z,101662.77
2018-08-28T05:06:45.323Z,101673.18
2018-08-28T05:09:13.611Z,101667.63
2018-08-28T05:11:41.879Z,101675.61
2018-08-28T05:14:10.037Z,101675.09
2018-08-28T05:16:38.284Z,101674.58
2018-08-28T05:19:06.576Z,101682.91
2018-08-28T05:21:42.508Z,101679.28
2018-08-28T05:24:10.822Z,101686.09
2018-08-28T05:26:39.108Z,101688.30
2018-08-28T05:29:07.369Z,101692.75
2018-08-28T05:31:35.675Z,101695.99
2018-08-28T05:34:04.004Z,101699.98
2018-08-28T05:36:32.181Z,101698.56
2018-08-28T05:39:00.465Z,101709.13
2018-08-28T05:41:28.657Z,101709.30
2018-08-28T05:43:56.918Z,101718.02
2018-08-28T05:46:25.195Z,101721.09
2018-08-28T05:48:53.475Z,101723.53
2018-08-28T05:51:21.666Z,101729.83
2018-08-28T05:53:49.944Z,101724.05
2018-08-28T05:56:18.303Z,101731.16
2018-08-28T05:58:46.480Z,101731.67
2018-08-28T06:01:14.674Z,101729.10
2018-08-28T06:03:45.018Z,101729.23
2018-08-28T06:06:13.335Z,101733.46
2018-08-28T06:08:41.757Z,101730.41
2018-08-28T06:11:10.039Z,101735.02
2018-08-28T06:13:38.343Z,101732.36
2018-08-28T06:16:06.719Z,101725.55
2018-08-28T06:18:35.352Z,101731.32
2018-08-28T06:21:03.596Z,101738.11
2018-08-28T06:23:31.857Z,101736.48
2018-08-28T06:26:00.211Z,101737.14
2018-08-28T06:28:28.460Z,101739.80
2018-08-28T06:30:56.824Z,101741.94
2018-08-28T06:33:25.402Z,101740.77
2018-08-28T06:35:53.665Z,101737.50
2018-08-28T06:38:21.867Z,101740.91
2018-08-28T06:40:50.153Z,101750.87
2018-08-28T06:43:18.415Z,101752.78
2018-08-28T06:45:46.888Z,101760.58
2018-08-28T06:48:15.407Z,101762.78
2018-08-28T06:50:43.774Z,101755.55
2018-08-28T06:53:12.115Z,101762.48
2018-08-28T06:55:40.390Z,101762.04
2018-08-28T06:58:08.849Z,101766.69
2018-08-28T07:00:37.209Z,101766.59
2018-08-28T07:03:05.552Z,101769.48
2018-08-28T07:05:33.907Z,101774.08
2018-08-28T07:08:02.150Z,101773.98
2018-08-28T07:10:30.376Z,101779.89
2018-08-28T07:12:58.672Z,101776.77
2018-08-28T07:15:26.930Z,101782.39
2018-08-28T07:17:55.221Z,101784.53
2018-08-28T07:20:23.491Z,101786.84
2018-08-28T07:22:51.725Z,101781.64
2018-08-28T07:25:19.981Z,101776.17
2018-08-28T07:27:48.229Z,101778.21
2018-08-28T07:30:16.473Z,101777.17
2018-08-28T07:32:45.260Z,101782.04
2018-08-28T07:35:13.571Z,101782.72
2018-08-28T07:37:42.003Z,101793.02
2018-08-28T07:40:10.236Z,101783.05
2018-08-28T07:42:38.535Z,101792.80
2018-08-28T07:45:06.795Z,101796.04
2018-08-28T07:47:35.189Z,101794.53
2018-08-28T07:50:03.559Z,101801.17
2018-08-28T07:52:31.905Z,101801.51
2018-08-28T07:55:00.355Z,101802.59
2018-08-28T07:57:28.680Z,101805.35
2018-08-28T07:59:57.016Z,101805.64
2018-08-28T08:02:25.648Z,101804.83
2018-08-28T08:04:53.987Z,101804.76
2018-08-28T08:07:22.203Z,101805.61
2018-08-28T08:09:50.596Z,101812.27
2018-08-28T08:12:20.118Z,101809.61
2018-08-28T08:14:47.327Z,101815.84
2018-08-28T08:17:15.566Z,101817.70
2018-08-28T08:19:43.906Z,101821.13
2018-08-28T08:22:12.289Z,101818.81
2018-08-28T08:24:40.455Z,101816.81
2018-08-28T08:27:08.936Z,101829.13
2018-08-28T08:29:37.218Z,101826.38
2018-08-28T08:32:05.506Z,101826.81
2018-08-28T08:34:33.796Z,101828.22
2018-08-28T08:37:02.121Z,101833.14
2018-08-28T08:39:30.338Z,101832.43
2018-08-28T08:41:58.702Z,101834.97
2018-08-28T08:44:26.971Z,101826.58
2018-08-28T08:46:55.263Z,101830.55
2018-08-28T08:49:23.765Z,101832.78
2018-08-28T08:51:52.062Z,101832.50
2018-08-28T08:54:20.392Z,101829.36
2018-08-28T08:56:52.023Z,101822.04
2018-08-28T08:59:20.330Z,101828.84
2018-08-28T09:01:48.637Z,101827.31
2018-08-28T09:04:16.899Z,101816.27
2018-08-28T09:06:45.249Z,101815.08
2018-08-28T09:09:13.613Z,101819.22
2018-08-28T09:11:42.005Z,101816.86
2018-08-28T09:14:10.303Z,101822.05
2018-08-28T09:16:38.628Z,101814.59
2018-08-28T09:19:06.856Z,101812.17
2018-08-28T09:21:36.250Z,101816.47
2018-08-28T09:24:03.401Z,101814.97
2018-08-28T09:26:31.704Z,101813.13
2018-08-28T09:28:59.897Z,101814.49
2018-08-28T09:31:28.286Z,101814.22
2018-08-28T09:33:56.464Z,101819.34
2018-08-28T09:36:24.721Z,101819.09
2018-08-28T09:38:53.161Z,101824.70
2018-08-28T09:41:21.526Z,101826.84
2018-08-28T09:43:49.808Z,101831.09
2018-08-28T09:46:18.107Z,101826.17
2018-08-28T09:51:13.757Z,101826.87
2018-08-28T09:53:42.100Z,101828.39
2018-08-28T09:56:10.523Z,101829.11
2018-08-28T09:58:39.335Z,101835.76
2018-08-28T10:01:25.512Z,101835.88
2018-08-28T10:03:53.985Z,101840.82
2018-08-28T10:06:22.332Z,101840.42
2018-08-28T10:08:50.637Z,101836.55
2018-08-28T10:11:18.891Z,101843.40
2018-08-28T10:13:47.258Z,101848.97
2018-08-28T10:16:18.259Z,101853.80
2018-08-28T10:18:46.700Z,101848.29
2018-08-28T10:21:14.901Z,101845.30
2018-08-28T10:23:43.176Z,101845.30
2018-08-28T10:26:11.426Z,101850.90
2018-08-28T10:28:39.889Z,101843.12
2018-08-28T10:31:08.236Z,101853.86
2018-08-28T10:33:36.646Z,101856.31
2018-08-28T10:36:05.029Z,101854.20
2018-08-28T10:38:33.433Z,101856.13
2018-08-28T10:41:01.723Z,101852.98
2018-08-28T10:43:30.179Z,101855.01
2018-08-28T10:46:01.535Z,101855.67
2018-08-28T10:48:29.756Z,101858.13
2018-08-28T10:50:58.109Z,101851.17
2018-08-28T10:53:26.419Z,101854.88
2018-08-28T10:55:54.767Z,101854.56
2018-08-28T10:58:23.235Z,101857.81
2018-08-28T11:00:51.441Z,101858.58
2018-08-28T11:03:19.892Z,101855.64
2018-08-28T11:05:48.869Z,101860.39
2018-08-28T11:08:17.398Z,101863.55
2018-08-28T11:10:49.074Z,101861.81
2018-08-28T11:13:17.525Z,101861.48
2018-08-28T11:15:45.857Z,101860.77
2018-08-28T11:18:14.128Z,101860.86
2018-08-28T11:20:42.411Z,101863.08
2018-08-28T11:23:10.791Z,101856.72
2018-08-28T11:25:39.017Z,101859.70
2018-08-28T11:28:07.305Z,101857.86
2018-08-28T11:30:35.606Z,101859.73
2018-08-28T11:33:03.974Z,101863.51
2018-08-28T11:35:34.677Z,101866.47
2018-08-28T11:38:02.925Z,101864.02
2018-08-28T11:40:31.182Z,101862.56
2018-08-28T11:42:59.432Z,101869.74
2018-08-28T11:45:27.932Z,101869.53
2018-08-28T11:47:56.221Z,101873.13
2018-08-28T11:50:30.222Z,101867.27
2018-08-28T11:52:58.442Z,101869.72
2018-08-28T11:55:26.703Z,101864.86
2018-08-28T11:57:57.562Z,101869.19
2018-08-28T12:00:25.825Z,101869.73
2018-08-28T12:02:54.128Z,101862.74
2018-08-28T12:05:22.414Z,101871.34
2018-08-28T12:07:50.944Z,101864.89
2018-08-28T12:10:21.380Z,101868.11
2018-08-28T12:12:49.627Z,101867.84
2018-08-28T12:15:18.373Z,101867.30
2018-08-28T12:17:46.614Z,101867.24
2018-08-28T12:20:14.946Z,101878.50
2018-08-28T12:22:43.127Z,101873.31
2018-08-28T12:25:11.522Z,101873.52
2018-08-28T12:27:39.709Z,101873.15
2018-08-28T12:30:09.237Z,101880.66
2018-08-28T12:32:37.578Z,101881.37
2018-08-28T12:35:06.599Z,101876.12
2018-08-28T12:37:35.018Z,101883.84
2018-08-28T12:40:06.523Z,101885.66
2018-08-28T12:42:34.807Z,101893.05
2018-08-28T12:45:03.149Z,101887.91
2018-08-28T12:47:31.598Z,101888.97
2018-08-28T12:49:59.927Z,101885.91
2018-08-28T12:52:34.510Z,101891.81
2018-08-28T12:55:02.965Z,101886.48
2018-08-28T12:57:31.241Z,101885.69
2018-08-28T12:59:59.619Z,101883.91
2018-08-28T13:02:27.891Z,101895.49
2018-08-28T13:04:56.143Z,101889.05
2018-08-28T13:07:24.593Z,101886.63
2018-08-28T13:09:52.746Z,101889.81
2018-08-28T13:12:21.090Z,101890.84
2018-08-28T13:14:49.435Z,101892.20
2018-08-28T13:17:17.769Z,101894.36
2018-08-28T13:19:46.286Z,101895.15
2018-08-28T13:22:14.521Z,101899.13
2018-08-28T13:24:42.893Z,101893.45
2018-08-28T13:27:11.172Z,101904.18
2018-08-28T13:29:39.540Z,101895.06
2018-08-28T13:32:08.025Z,101899.30
2018-08-28T13:34:36.415Z,101885.93
2018-08-28T13:37:04.882Z,101893.66
2018-08-28T13:39:33.112Z,101896.53
2018-08-28T13:42:01.470Z,101893.30
2018-08-28T13:44:29.737Z,101893.32
2018-08-28T13:46:58.090Z,101889.04
2018-08-28T13:49:26.293Z,101887.13
2018-08-28T13:51:54.661Z,101889.02
2018-08-28T13:54:23.009Z,101893.55
2018-08-28T13:56:51.277Z,101891.98
2018-08-28T13:59:19.968Z,101894.91
2018-08-28T14:01:48.163Z,101891.70
2018-08-28T14:04:16.408Z,101888.98
2018-08-28T14:06:47.625Z,101889.83
2018-08-28T14:09:17.222Z,101889.81
2018-08-28T14:11:45.498Z,101892.75
2018-08-28T14:14:13.694Z,101890.64
2018-08-28T14:16:47.245Z,101888.45
2018-08-28T14:19:15.615Z,101894.98
2018-08-28T14:22:00.247Z,101895.80
2018-08-28T14:24:28.576Z,101897.98
2018-08-28T14:26:56.917Z,101899.62
2018-08-28T14:29:25.554Z,101894.00
2018-08-28T14:31:53.724Z,101895.36
2018-08-28T14:34:22.153Z,101889.97
2018-08-28T14:36:51.044Z,101893.19
2018-08-28T14:39:19.492Z,101894.77
2018-08-28T14:41:54.621Z,101891.53
2018-08-28T14:44:23.241Z,101888.36
2018-08-28T14:46:51.621Z,101886.77
2018-08-28T14:49:32.520Z,101885.70
2018-08-28T14:51:59.593Z,101890.31
2018-08-28T14:54:27.962Z,101886.03
2018-08-28T14:56:59.027Z,101879.06
2018-08-28T14:59:27.503Z,101883.66
2018-08-28T15:01:58.569Z,101882.01
2018-08-28T15:04:26.850Z,101875.25
2018-08-28T15:06:55.146Z,101876.09
2018-08-28T15:09:23.682Z,101879.88
2018-08-28T15:11:51.890Z,101870.11
2018-08-28T15:14:20.271Z,101866.88
2018-08-28T15:16:48.796Z,101866.23
2018-08-28T15:19:17.094Z,101861.47
2018-08-28T15:21:45.493Z,101864.43
2018-08-28T15:24:16.558Z,101855.50
2018-08-28T15:26:51.391Z,101860.95
2018-08-28T15:29:23.491Z,101855.04
2018-08-28T15:31:51.700Z,101853.47
2018-08-28T15:34:22.253Z,101854.83
2018-08-28T15:36:50.693Z,101850.81
2018-08-28T15:39:22.117Z,101852.95
2018-08-28T15:41:50.841Z,101853.77
2018-08-28T15:44:19.157Z,101857.80
2018-08-28T15:46:47.509Z,101850.29
2018-08-28T15:49:15.862Z,101855.11
2018-08-28T15:51:44.146Z,101854.83
2018-08-28T15:54:12.415Z,101852.69
2018-08-28T15:56:40.652Z,101852.94
2018-08-28T15:59:09.019Z,101858.58
2018-08-28T16:01:37.266Z,101859.92
2018-08-28T16:04:13.231Z,101853.22
2018-08-28T16:06:42.638Z,101854.55
2018-08-28T16:09:11.016Z,101855.09
2018-08-28T16:11:39.332Z,101854.55
2018-08-28T16:14:07.723Z,101855.11
2018-08-28T16:16:39.056Z,101854.54
2018-08-28T16:19:07.743Z,101853.48
2018-08-28T16:32:01.654Z,101857.22
2018-08-28T16:34:30.240Z,101851.27
2018-08-28T16:36:58.528Z,101855.55
2018-08-28T16:39:26.876Z,101855.04
2018-08-28T16:41:55.955Z,101850.45
2018-08-28T16:44:46.464Z,101849.91
2018-08-28T16:47:15.030Z,101852.08
2018-08-28T16:49:43.210Z,101853.13
2018-08-28T16:52:11.554Z,101843.20
2018-08-28T16:54:39.970Z,101846.89
2018-08-28T16:57:09.126Z,101850.91
2018-08-28T16:59:37.523Z,101848.23
2018-08-28T17:02:06.067Z,101847.95
2018-08-28T17:04:35.550Z,101851.17
2018-08-28T17:07:06.763Z,101846.58
2018-08-28T17:09:40.722Z,101848.19
2018-08-28T17:12:11.969Z,101846.59
2018-08-28T17:14:47.049Z,101846.31
2018-08-28T17:17:15.537Z,101852.53
2018-08-28T17:19:43.763Z,101848.78
2018-08-28T17:22:12.094Z,101843.41
2018-08-28T17:24:40.460Z,101841.81
2018-08-28T17:27:09.060Z,101845.82
2018-08-28T17:29:37.533Z,101853.58
2018-08-28T17:32:09.947Z,101852.22
2018-08-28T17:34:38.241Z,101856.17
2018-08-28T17:37:06.783Z,101854.04
2018-08-28T17:39:35.485Z,101854.90
2018-08-28T17:42:06.084Z,101858.64
2018-08-28T17:44:33.325Z,101855.77
2018-08-28T17:47:07.577Z,101858.31
2018-08-28T17:49:36.739Z,101868.80
2018-08-28T17:52:05.730Z,101858.67
2018-08-28T17:54:34.578Z,101865.91
2018-08-28T17:57:03.041Z,101865.36
2018-08-28T17:59:31.862Z,101871.04
2018-08-28T18:02:00.338Z,101875.62
2018-08-28T18:04:28.848Z,101865.17
2018-08-28T18:06:59.274Z,101869.45
2018-08-28T18:09:27.745Z,101872.89
2018-08-28T18:11:58.892Z,101873.14
2018-08-28T18:14:30.255Z,101878.43
2018-08-28T18:16:58.675Z,101879.77
2018-08-28T18:22:39.686Z,101880.33
2018-08-28T18:25:41.890Z,101885.21
2018-08-28T18:28:10.111Z,101881.64
2018-08-28T18:30:49.956Z,101892.09
2018-08-28T18:33:28.924Z,101893.41
2018-08-28T18:36:12.266Z,101892.64
2018-08-28T18:38:45.000Z,101896.11
2018-08-28T18:41:33.276Z,101896.95
2018-08-28T18:44:52.246Z,101891.33
2018-08-28T18:48:15.763Z,101894.27
2018-08-28T18:51:25.452Z,101887.61
2018-08-28T18:57:24.106Z,101891.28
2018-08-28T19:00:19.946Z,101901.73
2018-08-28T19:06:01.945Z,101890.38
2018-08-28T19:08:51.628Z,101888.96
2018-08-28T19:11:29.546Z,101889.99
2018-08-28T19:14:52.228Z,101903.75
2018-08-28T19:18:12.910Z,101897.11
2018-08-28T19:21:15.606Z,101898.25
2018-08-28T19:24:45.521Z,101894.59
2018-08-28T19:27:46.472Z,101897.28
2018-08-28T19:31:00.272Z,101902.13
2018-08-28T19:34:18.549Z,101898.98
2018-08-28T19:36:53.456Z,101902.58
2018-08-28T19:39:41.591Z,101903.97
2018-08-28T19:43:07.028Z,101897.02
2018-08-28T19:45:59.543Z,101898.34
2018-08-28T19:49:39.016Z,101899.06
2018-08-28T19:52:30.257Z,101894.20
2018-08-28T19:55:52.664Z,101892.94
2018-08-28T19:58:49.225Z,101894.52
2018-08-28T20:02:06.642Z,101896.78
2018-08-28T20:04:43.442Z,101893.77
2018-08-28T20:07:16.185Z,101892.21
2018-08-28T20:10:00.309Z,101888.23
2018-08-28T20:13:03.728Z,101886.86
2018-08-28T20:16:16.847Z,101886.36
2018-08-28T20:19:16.832Z,101882.06
2018-08-28T20:22:08.548Z,101888.47
2018-08-28T20:31:39.223Z,101873.13
2018-08-28T20:34:18.766Z,101875.28
2018-08-28T20:37:24.509Z,101876.30
2018-08-28T20:39:50.210Z,101874.47
2018-08-28T20:42:33.855Z,101869.64
2018-08-28T20:45:48.020Z,101863.34
2018-08-28T20:48:42.180Z,101858.52
2018-08-28T20:51:34.018Z,101861.38
2018-08-28T21:01:30.089Z,101859.64
2018-08-28T21:04:14.658Z,101857.57
2018-08-28T21:07:34.419Z,101855.63
2018-08-28T21:11:09.843Z,101847.54
2018-08-28T21:18:04.457Z,101850.74
2018-08-28T21:20:46.858Z,101848.94
2018-08-28T21:27:37.537Z,101841.54
2018-08-28T21:30:41.827Z,101838.09
2018-08-28T21:33:54.339Z,101836.17
2018-08-28T21:37:01.804Z,101828.95
2018-08-28T21:40:00.805Z,101827.98
2018-08-28T21:43:17.216Z,101827.34
2018-08-28T21:46:50.472Z,101827.98
2018-08-28T21:53:10.970Z,101824.74
2018-08-28T21:59:03.598Z,101826.64
2018-08-28T22:01:36.769Z,101832.92
2018-08-28T22:04:32.168Z,101836.89
2018-08-28T22:07:34.483Z,101833.17
2018-08-28T22:10:22.865Z,101838.11
2018-08-28T22:13:51.329Z,101830.55
2018-08-28T22:16:57.340Z,101829.13
2018-08-28T22:20:02.303Z,101827.70
2018-08-28T22:28:21.426Z,101822.80
2018-08-28T22:30:39.281Z,101818.09
2018-08-28T22:33:07.388Z,101824.36
2018-08-28T22:35:35.476Z,101828.17
2018-08-28T22:38:03.560Z,101826.63
2018-08-28T22:40:31.643Z,101821.11
2018-08-28T22:42:59.752Z,101818.20
2018-08-28T22:45:27.832Z,101819.54
2018-08-28T22:47:58.154Z,101818.88
2018-08-28T22:50:30.194Z,101820.26
2018-08-28T22:53:01.788Z,101820.90
2018-08-28T22:55:33.501Z,101814.51
2018-08-28T22:58:04.830Z,101817.25
2018-08-28T23:00:37.238Z,101815.73
2018-08-28T23:03:08.062Z,101811.58
2018-08-28T23:05:40.033Z,101816.39
2018-08-28T23:08:12.126Z,101820.35
2018-08-28T23:10:43.568Z,101820.69
2018-08-28T23:13:15.196Z,101824.13
2018-08-28T23:15:44.871Z,101819.78
2018-08-28T23:18:15.060Z,101813.67
2018-08-28T23:20:43.141Z,101817.20
2018-08-28T23:23:11.283Z,101809.43
2018-08-28T23:25:39.333Z,101807.28
2018-08-28T23:28:07.414Z,101808.33
2018-08-28T23:30:35.495Z,101810.86
2018-08-28T23:33:03.598Z,101807.64
2018-08-28T23:35:31.663Z,101804.78
2018-08-28T23:37:59.713Z,101806.03
2018-08-28T23:40:27.776Z,101811.03
2018-08-28T23:42:55.872Z,101808.52
2018-08-28T23:45:23.942Z,101806.13
2018-08-28T23:47:52.034Z,101810.50
2018-08-28T23:50:20.095Z,101809.09
2018-08-28T23:52:48.248Z,101808.41
2018-08-28T23:55:16.279Z,101811.95
2018-08-28T23:57:44.343Z,101807.70
